createdAt,value
2023-01-18T00:04:18.729Z,96100.19
2023-01-18T00:09:23.522Z,96115.47
2023-01-18T00:14:28.372Z,96115.91
2023-01-18T00:19:36.567Z,96113.16
2023-01-18T00:24:41.578Z,96108.53
2023-01-18T00:29:46.501Z,96114.91
2023-01-18T00:34:54.035Z,96119.78
2023-01-18T00:40:01.034Z,96120.78
2023-01-18T00:45:06.134Z,96111.13
2023-01-18T00:50:14.720Z,96111.59
2023-01-18T00:55:21.024Z,96112.97
2023-01-18T01:00:27.210Z,96118.09
2023-01-18T01:05:47.157Z,96116.69
2023-01-18T01:10:53.852Z,96120.69
2023-01-18T01:16:12.730Z,96113.81
2023-01-18T01:21:32.815Z,96111.66
2023-01-18T01:26:37.871Z,96106.41
2023-01-18T01:31:42.764Z,96112.75
2023-01-18T01:36:52.232Z,96115.53
2023-01-18T01:41:57.281Z,96098.75
2023-01-18T01:47:05.946Z,96099.22
2023-01-18T01:52:16.333Z,96099.53
2023-01-18T01:57:24.427Z,96097.66
2023-01-18T02:02:29.989Z,96097.97
2023-01-18T02:07:39.986Z,96088.41
2023-01-18T02:12:47.736Z,96102.47
2023-01-18T02:18:17.996Z,96103.69
2023-01-18T02:23:35.421Z,96105.53
2023-01-18T02:28:47.081Z,96104.31
2023-01-18T02:34:01.752Z,96102.28
2023-01-18T02:39:13.458Z,96089.78
2023-01-18T02:44:39.580Z,96096.28
2023-01-18T02:49:44.963Z,96098.56
2023-01-18T02:54:50.014Z,96096.72
2023-01-18T02:59:59.559Z,96097.97
2023-01-18T03:05:05.444Z,96100.25
2023-01-18T03:10:14.691Z,96100.06
2023-01-18T03:15:31.608Z,96097.75
2023-01-18T03:20:43.604Z,96109.16
2023-01-18T03:25:53.809Z,96097.25
2023-01-18T03:31:16.443Z,96103.41
2023-01-18T03:36:24.999Z,96114.19
2023-01-18T03:41:33.793Z,96121.88
2023-01-18T03:46:43.962Z,96127.28
2023-01-18T03:51:58.264Z,96120.78
2023-01-18T03:57:07.582Z,96114.06
2023-01-18T04:02:15.260Z,96116.13
2023-01-18T04:07:20.127Z,96119.16
2023-01-18T04:12:25.642Z,96112.53
2023-01-18T04:17:34.652Z,96112.44
2023-01-18T04:22:39.678Z,96108.34
2023-01-18T04:27:44.909Z,96102.38
2023-01-18T04:32:52.639Z,96103.53
2023-01-18T04:37:57.513Z,96110.25
2023-01-18T04:43:02.391Z,96112.59
2023-01-18T04:48:15.753Z,96105.91
2023-01-18T04:53:21.179Z,96103.53
2023-01-18T04:58:26.148Z,96106.28
2023-01-18T05:03:38.208Z,96114.59
2023-01-18T05:08:43.872Z,96123.69
2023-01-18T05:13:53.349Z,96139.06
2023-01-18T05:19:01.764Z,96135.16
2023-01-18T05:24:07.745Z,96135.97
2023-01-18T05:29:13.260Z,96140.06
2023-01-18T05:34:21.031Z,96143.94
2023-01-18T05:39:26.740Z,96147.16
2023-01-18T05:44:32.890Z,96143.91
2023-01-18T05:49:41.934Z,96155.94
2023-01-18T05:54:47.090Z,96154.47
2023-01-18T05:59:52.039Z,96158.94
2023-01-18T06:04:59.598Z,96145.94
2023-01-18T06:10:04.452Z,96143.94
2023-01-18T06:15:11.438Z,96151.47
2023-01-18T06:20:20.033Z,96155.38
2023-01-18T06:25:25.251Z,96162.56
2023-01-18T06:30:35.859Z,96164.72
2023-01-18T06:35:44.471Z,96171.72
2023-01-18T06:40:50.810Z,96169.22
2023-01-18T06:46:08.933Z,96175.28
2023-01-18T06:51:17.435Z,96182.00
2023-01-18T06:56:23.503Z,96180.94
2023-01-18T07:01:28.931Z,96194.63
2023-01-18T07:06:39.308Z,96200.22
2023-01-18T07:11:47.116Z,96201.53
2023-01-18T07:16:52.222Z,96199.81
2023-01-18T07:22:00.930Z,96204.03
2023-01-18T07:27:10.707Z,96217.44
2023-01-18T07:32:16.439Z,96222.47
2023-01-18T07:37:24.284Z,96228.06
2023-01-18T07:42:32.118Z,96229.50
2023-01-18T07:47:40.550Z,96229.94
2023-01-18T07:52:58.700Z,96239.13
2023-01-18T07:58:05.950Z,96241.28
2023-01-18T08:03:18.520Z,96245.31
2023-01-18T08:08:27.813Z,96248.31
2023-01-18T08:13:32.916Z,96249.59
2023-01-18T08:18:45.414Z,96257.47
2023-01-18T08:23:56.453Z,96260.81
2023-01-18T08:29:02.358Z,96278.88
2023-01-18T08:34:07.322Z,96281.00
2023-01-18T08:39:18.337Z,96281.72
2023-01-18T08:44:25.678Z,96285.72
2023-01-18T08:49:33.737Z,96292.78
2023-01-18T08:54:42.741Z,96302.41
2023-01-18T08:59:48.151Z,96296.63
2023-01-18T09:04:53.926Z,96298.03
2023-01-18T09:10:01.675Z,96306.00
2023-01-18T09:15:07.705Z,96313.25
2023-01-18T09:20:18.752Z,96321.47
2023-01-18T09:25:29.638Z,96329.28
2023-01-18T09:30:36.011Z,96323.44
2023-01-18T09:35:42.975Z,96322.31
2023-01-18T09:40:52.743Z,96322.59
2023-01-18T09:45:59.881Z,96329.25
2023-01-18T09:51:14.527Z,96340.47
2023-01-18T09:56:31.345Z,96345.78
2023-01-18T10:01:38.449Z,96353.19
2023-01-18T10:06:49.494Z,96343.91
2023-01-18T10:12:02.402Z,96343.22
2023-01-18T10:17:14.463Z,96346.78
2023-01-18T10:22:25.192Z,96345.63
2023-01-18T10:27:55.444Z,96351.72
2023-01-18T10:33:03.104Z,96346.78
2023-01-18T10:38:12.115Z,96347.53
2023-01-18T10:43:22.145Z,96343.72
2023-01-18T10:48:30.504Z,96352.88
2023-01-18T10:53:37.236Z,96359.84
2023-01-18T10:58:48.453Z,96368.38
2023-01-18T11:03:56.471Z,96379.47
2023-01-18T11:09:02.146Z,96382.06
2023-01-18T11:14:26.289Z,96389.66
2023-01-18T11:19:31.542Z,96388.28
2023-01-18T11:24:37.894Z,96395.19
2023-01-18T11:29:48.426Z,96398.13
2023-01-18T11:34:55.419Z,96405.88
2023-01-18T11:40:00.549Z,96407.59
2023-01-18T11:45:24.678Z,96409.03
2023-01-18T11:50:38.382Z,96417.50
2023-01-18T11:55:56.169Z,96417.56
2023-01-18T12:01:23.876Z,96432.84
2023-01-18T12:06:42.982Z,96444.22
2023-01-18T12:12:18.133Z,96449.09
2023-01-18T12:17:40.190Z,96444.19
2023-01-18T12:23:12.007Z,96441.50
2023-01-18T12:28:32.558Z,96446.44
2023-01-18T12:33:52.328Z,96457.44
2023-01-18T12:39:00.008Z,96469.16
2023-01-18T12:44:28.844Z,96482.03
2023-01-18T12:49:42.321Z,96500.16
2023-01-18T12:54:50.978Z,96507.69
2023-01-18T13:00:10.769Z,96513.88
2023-01-18T13:05:23.914Z,96510.63
2023-01-18T13:10:30.849Z,96529.56
2023-01-18T13:15:44.004Z,96534.75
2023-01-18T13:21:06.794Z,96539.31
2023-01-18T13:26:31.556Z,96549.81
2023-01-18T13:31:41.675Z,96546.91
2023-01-18T13:36:50.403Z,96562.59
2023-01-18T13:42:25.460Z,96564.72
2023-01-18T13:47:49.487Z,96571.13
2023-01-18T13:53:19.089Z,96574.88
2023-01-18T13:58:30.239Z,96589.84
2023-01-18T14:03:38.534Z,96597.28
2023-01-18T14:08:57.279Z,96614.53
2023-01-18T14:14:08.399Z,96622.94
2023-01-18T14:19:20.223Z,96631.34
2023-01-18T14:25:00.529Z,96633.94
2023-01-18T14:30:16.406Z,96650.91
2023-01-18T14:35:26.066Z,96660.34
2023-01-18T14:40:33.973Z,96678.22
2023-01-18T14:45:49.519Z,96682.88
2023-01-18T14:50:59.140Z,96694.53
2023-01-18T14:56:06.340Z,96694.31
2023-01-18T15:01:28.341Z,96706.38
2023-01-18T15:06:44.573Z,96714.53
2023-01-18T15:11:50.722Z,96718.97
2023-01-18T15:17:01.087Z,96736.38
2023-01-18T15:22:08.584Z,96741.88
2023-01-18T15:27:15.775Z,96763.75
2023-01-18T15:32:25.855Z,96772.00
2023-01-18T15:37:33.773Z,96783.28
2023-01-18T15:42:42.788Z,96795.72
2023-01-18T15:47:54.923Z,96812.78
2023-01-18T15:53:06.334Z,96813.06
2023-01-18T15:58:16.035Z,96822.84
2023-01-18T16:03:26.681Z,96829.88
2023-01-18T16:08:31.660Z,96837.66
2023-01-18T16:13:39.363Z,96836.91
2023-01-18T16:18:50.939Z,96845.56
2023-01-18T16:23:57.264Z,96840.41
2023-01-18T16:29:14.609Z,96865.81
2023-01-18T16:34:26.232Z,96871.25
2023-01-18T16:39:31.108Z,96885.16
2023-01-18T16:44:36.489Z,96877.34
2023-01-18T16:49:44.275Z,96896.03
2023-01-18T16:54:49.263Z,96908.84
2023-01-18T16:59:54.321Z,96907.84
2023-01-18T17:05:04.099Z,96917.91
2023-01-18T17:10:22.001Z,96934.13
2023-01-18T17:15:28.348Z,96944.97
2023-01-18T17:20:36.229Z,96948.84
2023-01-18T17:25:45.508Z,96961.59
2023-01-18T17:30:52.509Z,96973.06
2023-01-18T17:36:00.117Z,96967.13
2023-01-18T17:41:07.108Z,96979.28
2023-01-18T17:46:13.926Z,96988.13
2023-01-18T17:51:21.507Z,96997.03
2023-01-18T17:56:26.513Z,96996.81
2023-01-18T18:01:31.808Z,97002.72
2023-01-18T18:06:46.051Z,97020.38
2023-01-18T18:11:54.633Z,97019.53
2023-01-18T18:16:59.535Z,97028.31
2023-01-18T18:22:07.095Z,97034.34
2023-01-18T18:27:12.327Z,97048.88
2023-01-18T18:32:17.578Z,97055.53
2023-01-18T18:37:25.084Z,97064.13
2023-01-18T18:42:29.984Z,97076.09
2023-01-18T18:47:35.573Z,97083.78
2023-01-18T18:52:43.204Z,97101.91
2023-01-18T18:57:48.288Z,97114.13
2023-01-18T19:02:53.643Z,97124.81
2023-01-18T19:08:02.321Z,97137.81
2023-01-18T19:13:07.511Z,97143.72
2023-01-18T19:18:14.673Z,97159.97
2023-01-18T19:23:22.437Z,97168.41
2023-01-18T19:28:27.385Z,97178.78
2023-01-18T19:33:32.470Z,97178.91
2023-01-18T19:38:45.775Z,97183.91
2023-01-18T19:43:52.103Z,97197.25
2023-01-18T19:49:00.547Z,97213.44
2023-01-18T19:54:10.125Z,97225.31
2023-01-18T19:59:15.576Z,97234.41
2023-01-18T20:04:20.776Z,97247.06
2023-01-18T20:09:42.159Z,97255.34
2023-01-18T20:14:48.751Z,97269.28
2023-01-18T20:19:54.936Z,97279.59
2023-01-18T20:25:02.812Z,97281.66
2023-01-18T20:30:09.378Z,97298.88
2023-01-18T20:35:14.401Z,97308.03
2023-01-18T20:40:24.094Z,97311.94
2023-01-18T20:45:29.071Z,97316.66
2023-01-18T20:50:34.014Z,97321.81
2023-01-18T20:55:42.030Z,97332.38
2023-01-18T21:00:47.139Z,97336.22
2023-01-18T21:05:52.045Z,97343.28
2023-01-18T21:10:59.481Z,97353.22
2023-01-18T21:16:04.395Z,97351.69
2023-01-18T21:21:11.597Z,97350.09
2023-01-18T21:26:19.224Z,97345.38
2023-01-18T21:31:24.674Z,97346.13
2023-01-18T21:36:29.717Z,97354.72
2023-01-18T21:41:49.609Z,97371.53
2023-01-18T21:46:55.252Z,97366.88
2023-01-18T21:52:12.571Z,97372.31
2023-01-18T21:57:20.148Z,97371.44
2023-01-18T22:02:25.103Z,97379.31
2023-01-18T22:07:30.918Z,97380.88
2023-01-18T22:12:39.242Z,97389.63
2023-01-18T22:17:44.145Z,97390.94
2023-01-18T22:22:49.574Z,97403.78
2023-01-18T22:27:57.133Z,97404.84
2023-01-18T22:33:02.156Z,97414.81
2023-01-18T22:38:07.267Z,97407.78
2023-01-18T22:43:14.742Z,97407.75
2023-01-18T22:48:19.844Z,97414.00
2023-01-18T22:53:25.627Z,97407.00
2023-01-18T22:58:33.447Z,97423.97
2023-01-18T23:03:38.434Z,97431.78
2023-01-18T23:08:45.933Z,97427.63
2023-01-18T23:14:08.722Z,97435.16
2023-01-18T23:19:13.569Z,97459.25
2023-01-18T23:24:18.574Z,97473.84
2023-01-18T23:29:26.334Z,97487.22
2023-01-18T23:34:31.600Z,97496.78
2023-01-18T23:39:48.979Z,97508.91
2023-01-18T23:45:09.029Z,97511.53
2023-01-18T23:50:26.545Z,97514.13
2023-01-18T23:55:31.379Z,97523.06
